Time;durP1;ratioP1;P1;durP2;ratioP2;P2;SDS_P1;SDS_P2;PMS_P1;PMS_P2;Temp;Humidity;BMP_temperature;BMP_pressure;BME280_temperature;BME280_humidity;BME280_pressure;Samples;Min_cycle;Max_cycle;Signal;HPM_P1;HPM_P2
2021/06/15 00:00:48;;;;;;;4.03;3.83;;;21.70;32.60;;;;;;5092706;28;20167;-77
2021/06/15 00:03:13;;;;;;;4.17;3.87;;;21.80;32.80;;;;;;5091266;28;20226;-77
2021/06/15 00:05:39;;;;;;;4.57;4.10;;;21.70;32.70;;;;;;5090996;28;20649;-76
2021/06/15 00:08:05;;;;;;;4.10;3.90;;;21.80;32.80;;;;;;5091270;28;20174;-77
2021/06/15 00:10:30;;;;;;;4.63;4.33;;;21.80;32.80;;;;;;5092533;28;20203;-77
2021/06/15 00:12:57;;;;;;;4.30;4.10;;;21.80;32.80;;;;;;5092287;28;20696;-78
2021/06/15 00:15:23;;;;;;;4.00;3.80;;;21.70;32.80;;;;;;5092282;28;20633;-76
2021/06/15 00:17:50;;;;;;;4.10;3.80;;;21.80;32.80;;;;;;5092326;28;20408;-77
2021/06/15 00:20:16;;;;;;;4.60;4.27;;;21.80;32.80;;;;;;5092261;28;20405;-76
2021/06/15 00:22:43;;;;;;;4.03;3.80;;;21.80;32.90;;;;;;5092238;28;20782;-77
2021/06/15 00:25:10;;;;;;;4.20;4.00;;;21.80;32.80;;;;;;5092119;28;20839;-77
2021/06/15 00:27:36;;;;;;;4.07;3.87;;;21.70;32.80;;;;;;5092102;28;20436;-76
2021/06/15 00:30:03;;;;;;;4.07;3.87;;;21.80;32.90;;;;;;5090987;28;20452;-76
2021/06/15 00:32:29;;;;;;;4.20;3.90;;;21.80;32.90;;;;;;5091965;28;20251;-77
2021/06/15 00:34:55;;;;;;;3.83;3.63;;;21.70;32.90;;;;;;5091982;28;20475;-77
2021/06/15 00:37:21;;;;;;;3.77;3.57;;;21.70;32.80;;;;;;5091929;28;20539;-77
2021/06/15 00:39:48;;;;;;;4.67;4.33;;;21.70;32.80;;;;;;5091989;28;20409;-77
2021/06/15 00:42:14;;;;;;;4.10;3.90;;;21.80;32.90;;;;;;5091877;28;20425;-77
2021/06/15 00:44:40;;;;;;;3.53;3.40;;;21.70;32.90;;;;;;5090729;28;20436;-77
2021/06/15 00:47:06;;;;;;;4.13;3.80;;;21.70;32.90;;;;;;5091818;28;20772;-77
2021/06/15 00:49:36;;;;;;;4.10;3.90;;;21.70;32.90;;;;;;5091831;28;20228;-77
2021/06/15 00:52:03;;;;;;;4.00;3.80;;;21.70;33.00;;;;;;5091810;28;20202;-77
2021/06/15 00:54:29;;;;;;;3.73;3.53;;;21.70;33.00;;;;;;5090413;28;20464;-77
2021/06/15 00:56:54;;;;;;;3.97;3.77;;;21.70;33.00;;;;;;5091640;28;20939;-76
2021/06/15 00:59:20;;;;;;;4.23;3.93;;;21.70;33.00;;;;;;5091917;28;20171;-77
2021/06/15 01:01:46;;;;;;;3.90;3.70;;;21.70;33.00;;;;;;5091834;28;20588;-76
2021/06/15 01:04:13;;;;;;;3.87;3.67;;;21.70;33.00;;;;;;5091781;28;20242;-77
2021/06/15 01:06:44;;;;;;;4.00;3.80;;;21.70;33.00;;;;;;5090364;28;20448;-76
2021/06/15 01:09:34;;;;;;;4.20;3.97;;;21.70;33.10;;;;;;5091815;28;20425;-77
2021/06/15 01:12:33;;;;;;;4.00;3.80;;;21.70;33.10;;;;;;5091582;28;20456;-77
2021/06/15 01:15:16;;;;;;;3.57;3.37;;;21.70;33.10;;;;;;5088399;28;20444;-77
2021/06/15 01:17:54;;;;;;;3.77;3.57;;;21.70;33.10;;;;;;5091647;28;20439;-76
2021/06/15 01:20:36;;;;;;;3.87;3.67;;;21.70;33.20;;;;;;5091727;28;20409;-76
2021/06/15 01:23:32;;;;;;;4.17;3.80;;;21.70;33.20;;;;;;5091571;28;20783;-76
2021/06/15 01:26:15;;;;;;;4.03;3.83;;;21.70;33.20;;;;;;5091428;28;20405;-77
2021/06/15 01:28:47;;;;;;;4.20;3.93;;;21.70;33.20;;;;;;5092082;28;20894;-77
2021/06/15 01:31:26;;;;;;;3.83;3.63;;;21.70;33.20;;;;;;5091539;28;20475;-77
2021/06/15 01:34:02;;;;;;;4.17;3.87;;;21.70;33.20;;;;;;5090119;28;20441;-77
2021/06/15 01:36:33;;;;;;;3.83;3.53;;;21.70;33.20;;;;;;5091422;28;20937;-77
2021/06/15 01:39:03;;;;;;;4.00;3.70;;;21.70;33.20;;;;;;5091515;28;20783;-77
2021/06/15 01:41:33;;;;;;;4.17;3.87;;;21.70;33.20;;;;;;5091220;28;20458;-77
2021/06/15 01:44:06;;;;;;;3.80;3.57;;;21.70;33.20;;;;;;5091360;28;20440;-77
2021/06/15 01:46:39;;;;;;;4.10;3.90;;;21.70;33.30;;;;;;5091322;28;20504;-77
2021/06/15 01:49:10;;;;;;;3.73;3.53;;;21.70;33.30;;;;;;5091459;28;20506;-77
2021/06/15 01:51:37;;;;;;;4.10;3.90;;;21.60;33.20;;;;;;5091420;28;20495;-77
2021/06/15 01:54:11;;;;;;;4.27;4.07;;;21.60;33.20;;;;;;5091197;28;20442;-77
2021/06/15 01:56:42;;;;;;;3.70;3.50;;;21.70;33.40;;;;;;5091619;28;20933;-76
2021/06/15 01:59:09;;;;;;;4.00;3.80;;;21.60;33.20;;;;;;5091515;28;20411;-77
2021/06/15 02:01:38;;;;;;;3.50;3.30;;;21.60;33.20;;;;;;5091499;28;20417;-76
2021/06/15 02:04:05;;;;;;;4.13;3.83;;;21.60;33.30;;;;;;5092149;28;20943;-75
2021/06/15 02:06:32;;;;;;;4.03;3.83;;;21.60;33.30;;;;;;5095584;28;20764;-76
2021/06/15 02:08:59;;;;;;;3.70;3.50;;;21.60;33.30;;;;;;5096181;28;20413;-77
2021/06/15 02:11:28;;;;;;;4.13;3.83;;;21.60;33.30;;;;;;5095086;28;20491;-77
2021/06/15 02:13:54;;;;;;;3.47;3.27;;;21.60;33.30;;;;;;5094678;28;20425;-76
2021/06/15 02:16:21;;;;;;;3.90;3.70;;;21.60;33.30;;;;;;5094556;28;20416;-77
2021/06/15 02:18:52;;;;;;;3.87;3.67;;;21.60;33.30;;;;;;5094588;28;20412;-77
2021/06/15 02:21:18;;;;;;;3.37;3.17;;;21.60;33.30;;;;;;5095217;28;20547;-77
2021/06/15 02:23:47;;;;;;;3.70;3.50;;;21.60;33.30;;;;;;5094507;28;20439;-77
2021/06/15 02:26:16;;;;;;;3.40;3.20;;;21.60;33.40;;;;;;5093086;28;20444;-77
2021/06/15 02:28:42;;;;;;;4.33;4.13;;;21.60;33.40;;;;;;5094546;28;20497;-77
2021/06/15 02:31:15;;;;;;;3.77;3.57;;;21.60;33.40;;;;;;5093486;28;20456;-76
2021/06/15 02:33:45;;;;;;;4.37;4.07;;;21.60;33.40;;;;;;5094249;28;20493;-76
2021/06/15 02:36:28;;;;;;;3.77;3.47;;;21.60;33.40;;;;;;5094486;28;20488;-76
2021/06/15 02:38:57;;;;;;;4.03;3.83;;;21.60;33.40;;;;;;5094262;28;20413;-76
2021/06/15 02:41:24;;;;;;;4.77;4.47;;;21.60;33.40;;;;;;5094144;28;20432;-76
2021/06/15 02:43:57;;;;;;;3.30;3.10;;;21.60;33.40;;;;;;5093981;28;20436;-77
2021/06/15 02:46:26;;;;;;;3.77;3.57;;;21.60;33.40;;;;;;5093992;28;20409;-76
2021/06/15 02:48:55;;;;;;;3.60;3.40;;;21.60;33.40;;;;;;5094050;28;20416;-77
2021/06/15 02:51:24;;;;;;;3.83;3.63;;;21.60;33.50;;;;;;5093993;28;20409;-77
2021/06/15 02:54:12;;;;;;;3.70;3.50;;;21.60;33.40;;;;;;5093845;28;20428;-77
2021/06/15 02:56:45;;;;;;;3.93;3.73;;;21.60;33.40;;;;;;5093781;28;20412;-77
2021/06/15 02:59:11;;;;;;;3.10;3.00;;;21.60;33.40;;;;;;5093934;28;20413;-77
2021/06/15 03:01:36;;;;;;;3.20;3.10;;;21.60;33.50;;;;;;5093965;28;20412;-77
2021/06/15 03:04:03;;;;;;;3.70;3.50;;;21.60;33.50;;;;;;5093664;28;20588;-77
2021/06/15 03:06:29;;;;;;;4.03;3.73;;;21.60;33.50;;;;;;5093625;28;20185;-77
2021/06/15 03:08:54;;;;;;;3.03;2.93;;;21.60;33.50;;;;;;5092482;28;20416;-77
2021/06/15 03:11:23;;;;;;;3.50;3.30;;;21.50;33.50;;;;;;5093710;28;20261;-77
2021/06/15 03:13:54;;;;;;;3.80;3.60;;;21.60;33.50;;;;;;5093389;28;20193;-77
2021/06/15 03:16:24;;;;;;;3.57;3.37;;;21.60;33.60;;;;;;5093320;28;20917;-77
2021/06/15 03:19:13;;;;;;;3.93;3.73;;;21.60;33.50;;;;;;5092241;28;20408;-77
2021/06/15 03:21:43;;;;;;;3.50;3.30;;;21.60;33.60;;;;;;5093532;28;20891;-77
2021/06/15 03:24:17;;;;;;;3.80;3.60;;;21.60;33.60;;;;;;5093254;28;20816;-77
2021/06/15 03:27:08;;;;;;;3.50;3.37;;;21.60;34.30;;;;;;5093247;28;20416;-77
2021/06/15 03:29:39;;;;;;;4.20;4.00;;;21.60;33.60;;;;;;5092075;28;20998;-77
2021/06/15 03:32:11;;;;;;;3.77;3.60;;;21.60;33.60;;;;;;5093020;28;20886;-77
2021/06/15 03:34:46;;;;;;;3.43;3.23;;;21.60;33.70;;;;;;5093228;28;20432;-77
2021/06/15 03:37:20;;;;;;;3.30;3.20;;;21.50;33.60;;;;;;5080721;28;20436;-76
2021/06/15 03:40:01;;;;;;;3.10;3.00;;;21.50;33.60;;;;;;5085963;28;20444;-76
2021/06/15 03:42:37;;;;;;;3.80;3.60;;;21.50;33.60;;;;;;5090043;28;20481;-77
2021/06/15 03:45:10;;;;;;;3.87;3.67;;;21.50;33.60;;;;;;5087692;28;20432;-77
2021/06/15 03:47:39;;;;;;;3.60;3.40;;;21.50;33.60;;;;;;5087213;28;20424;-78
2021/06/15 03:50:12;;;;;;;3.67;3.57;;;21.60;33.70;;;;;;5092829;28;20401;-77
2021/06/15 03:52:41;;;;;;;3.77;3.53;;;21.50;33.60;;;;;;5072346;28;20827;-76
2021/06/15 03:55:09;;;;;;;3.70;3.50;;;21.50;33.60;;;;;;5072286;28;20920;-76
2021/06/15 03:57:48;;;;;;;3.53;3.33;;;21.50;33.60;;;;;;5072458;28;20406;-76
2021/06/15 04:00:23;;;;;;;4.17;3.97;;;21.60;33.70;;;;;;5072623;28;20459;-76
2021/06/15 04:02:56;;;;;;;4.00;3.80;;;21.50;33.70;;;;;;5072890;28;20549;-77
2021/06/15 04:05:28;;;;;;;3.70;3.60;;;21.50;33.70;;;;;;5072291;28;20449;-76
2021/06/15 04:08:04;;;;;;;3.30;3.20;;;21.50;33.60;;;;;;5072256;28;20779;-77
2021/06/15 04:10:33;;;;;;;3.80;3.60;;;21.50;33.60;;;;;;5072228;28;20409;-76
2021/06/15 04:13:03;;;;;;;3.90;3.80;;;21.50;33.60;;;;;;5070626;28;20465;-75
2021/06/15 04:15:32;;;;;;;3.93;3.73;;;21.50;33.70;;;;;;5077635;28;20413;-76
2021/06/15 04:18:00;;;;;;;4.43;4.23;;;21.50;34.10;;;;;;5092193;28;20420;-76
2021/06/15 04:20:37;;;;;;;4.30;4.00;;;21.60;34.00;;;;;;5087816;28;20405;-79
2021/06/15 04:23:19;;;;;;;7.53;4.70;;;21.60;34.20;;;;;;5091311;28;20428;-77
2021/06/15 04:25:56;;;;;;;5.33;4.93;;;21.60;35.30;;;;;;5090843;28;20413;-76
2021/06/15 04:28:23;;;;;;;6.47;5.07;;;21.60;35.10;;;;;;5091659;28;20423;-76
2021/06/15 04:30:50;;;;;;;5.30;5.00;;;21.70;35.40;;;;;;5092210;28;20779;-77
2021/06/15 04:33:21;;;;;;;5.57;5.17;;;21.70;35.50;;;;;;5092188;28;20456;-77
2021/06/15 04:35:59;;;;;;;5.73;5.27;;;21.70;35.50;;;;;;5092161;28;20400;-78
2021/06/15 04:38:42;;;;;;;5.90;5.60;;;21.70;35.70;;;;;;5091020;28;20949;-77
2021/06/15 04:41:23;;;;;;;5.87;5.37;;;21.80;35.90;;;;;;5091623;28;20922;-76
2021/06/15 04:44:11;;;;;;;5.97;5.47;;;21.80;35.80;;;;;;5092018;28;20485;-76
2021/06/15 04:46:46;;;;;;;4.83;4.50;;;21.70;36.10;;;;;;5091757;28;20411;-78
2021/06/15 04:49:22;;;;;;;5.97;5.33;;;21.80;36.70;;;;;;5089564;28;20836;-78
2021/06/15 04:51:53;;;;;;;7.70;4.90;;;21.70;36.00;;;;;;5091013;28;20463;-77
2021/06/15 04:54:21;;;;;;;6.03;5.20;;;21.70;36.00;;;;;;5090676;28;20822;-77
2021/06/15 04:56:53;;;;;;;5.90;5.40;;;21.80;36.20;;;;;;5091623;28;20439;-77
2021/06/15 04:59:24;;;;;;;6.87;5.53;;;21.80;36.10;;;;;;5091686;28;20758;-77
2021/06/15 05:01:54;;;;;;;7.67;4.83;;;21.80;36.10;;;;;;5112047;28;20774;-77
2021/06/15 05:04:25;;;;;;;11.60;6.23;;;21.80;36.20;;;;;;5110461;28;20564;-77
2021/06/15 05:06:51;;;;;;;6.10;5.60;;;21.80;36.10;;;;;;5111821;28;20839;-77
2021/06/15 05:09:27;;;;;;;6.40;5.30;;;21.80;36.20;;;;;;5111702;28;20408;-76
2021/06/15 05:11:58;;;;;;;5.63;5.13;;;21.80;36.60;;;;;;5112006;28;20453;-76
2021/06/15 05:14:43;;;;;;;9.37;5.97;;;21.80;37.30;;;;;;5112090;28;20428;-77
2021/06/15 05:17:31;;;;;;;5.90;5.40;;;21.80;36.40;;;;;;5111781;28;20486;-78
2021/06/15 05:20:00;;;;;;;5.70;5.20;;;21.80;36.50;;;;;;5112198;28;20622;-76
2021/06/15 05:22:38;;;;;;;6.53;6.03;;;21.80;36.50;;;;;;5111830;28;20419;-77
2021/06/15 05:25:05;;;;;;;5.90;5.00;;;21.90;36.60;;;;;;5111321;28;20410;-76
2021/06/15 05:27:35;;;;;;;7.27;5.70;;;21.90;36.60;;;;;;5112132;28;20457;-77
2021/06/15 05:30:02;;;;;;;5.30;4.90;;;21.90;36.70;;;;;;5112344;28;20526;-78
2021/06/15 05:32:32;;;;;;;6.13;5.60;;;21.90;36.70;;;;;;5112826;28;20456;-75
2021/06/15 05:35:03;;;;;;;8.33;5.37;;;21.80;36.70;;;;;;5113025;28;20497;-76
2021/06/15 05:37:29;;;;;;;14.93;6.43;;;21.90;36.80;;;;;;5113269;28;20430;-75
2021/06/15 05:40:08;;;;;;;10.10;5.70;;;21.90;36.90;;;;;;5112344;28;20399;-77
2021/06/15 05:42:38;;;;;;;6.70;6.00;;;21.80;36.80;;;;;;5115816;28;20442;-77
2021/06/15 05:45:07;;;;;;;7.73;5.43;;;21.90;37.10;;;;;;5115466;28;20412;-76
2021/06/15 05:47:33;;;;;;;9.63;6.10;;;21.90;37.00;;;;;;5115217;28;20905;-77
2021/06/15 05:50:05;;;;;;;5.83;5.43;;;21.90;37.00;;;;;;5115660;28;20435;-77
2021/06/15 05:52:32;;;;;;;6.30;5.30;;;21.90;36.90;;;;;;5115458;28;20455;-77
2021/06/15 05:55:19;;;;;;;8.80;5.70;;;21.90;37.30;;;;;;5114655;28;20530;-78
2021/06/15 05:57:51;;;;;;;8.10;5.83;;;21.90;37.20;;;;;;5115958;28;20403;-76
2021/06/15 06:00:34;;;;;;;6.43;5.10;;;21.80;37.10;;;;;;5111524;28;20514;-76
2021/06/15 06:03:02;;;;;;;11.07;5.70;;;21.90;37.50;;;;;;5090085;28;20424;-77
2021/06/15 06:08:21;;;;;;;9.80;6.40;;;21.80;37.50;;;;;;5094227;28;20477;-76
2021/06/15 06:10:52;;;;;;;10.80;7.90;;;21.90;37.40;;;;;;5094922;28;20412;-78
2021/06/15 06:13:19;;;;;;;18.50;7.40;;;21.80;37.40;;;;;;5091820;28;20468;-76
2021/06/15 06:15:47;;;;;;;10.80;7.43;;;21.80;37.30;;;;;;5092883;28;20770;-76
2021/06/15 06:18:16;;;;;;;8.87;7.93;;;21.90;37.80;;;;;;5094500;28;20408;-77
2021/06/15 06:20:45;;;;;;;13.17;7.37;;;21.90;37.20;;;;;;5094476;28;20477;-76
2021/06/15 06:23:20;;;;;;;8.80;7.47;;;21.80;36.90;;;;;;5094511;28;20425;-76
2021/06/15 06:25:46;;;;;;;11.07;7.90;;;21.80;36.90;;;;;;5095314;28;20408;-78
2021/06/15 06:28:25;;;;;;;8.03;7.03;;;21.90;36.90;;;;;;5094375;28;20416;-77
2021/06/15 06:30:53;;;;;;;10.73;6.90;;;21.90;36.80;;;;;;5095383;28;20415;-78
2021/06/15 06:33:22;;;;;;;12.10;7.67;;;21.80;36.70;;;;;;5095591;28;20452;-78
2021/06/15 06:35:51;;;;;;;11.20;7.90;;;21.90;36.80;;;;;;5098342;28;20423;-79
2021/06/15 06:38:17;;;;;;;13.33;8.43;;;21.90;36.80;;;;;;5097921;28;20803;-80
2021/06/15 06:40:45;;;;;;;8.63;7.60;;;21.90;36.80;;;;;;5101396;28;20401;-79
2021/06/15 06:43:16;;;;;;;8.30;7.13;;;21.90;36.60;;;;;;5099804;28;20464;-78
2021/06/15 06:45:44;;;;;;;8.17;7.40;;;21.80;36.50;;;;;;5093898;28;20915;-77
2021/06/15 06:48:13;;;;;;;8.17;7.33;;;21.90;36.60;;;;;;5094349;28;20424;-77
2021/06/15 06:50:39;;;;;;;7.77;6.70;;;21.90;36.40;;;;;;5093903;28;20771;-78
2021/06/15 06:53:13;;;;;;;7.83;6.20;;;21.90;36.00;;;;;;5091205;28;20485;-78
2021/06/15 06:55:45;;;;;;;6.57;6.10;;;21.90;36.10;;;;;;5091319;28;20251;-76
2021/06/15 06:58:15;;;;;;;7.33;6.17;;;21.90;35.90;;;;;;5077593;28;20416;-77
2021/06/15 07:00:43;;;;;;;9.77;7.33;;;21.90;35.20;;;;;;5090931;28;20408;-77
2021/06/15 07:03:15;;;;;;;7.13;6.53;;;21.80;35.20;;;;;;5086111;28;20448;-78
2021/06/15 07:05:46;;;;;;;7.40;6.70;;;21.90;35.40;;;;;;5093398;28;20417;-77
2021/06/15 07:08:14;;;;;;;7.13;5.80;;;21.90;35.70;;;;;;5093608;28;20504;-77
2021/06/15 07:10:42;;;;;;;6.97;6.07;;;21.90;35.70;;;;;;5092384;28;20423;-77
2021/06/15 07:13:08;;;;;;;6.60;6.10;;;21.90;35.70;;;;;;5093512;28;20460;-78
2021/06/15 07:15:39;;;;;;;7.77;6.97;;;21.90;35.70;;;;;;5087133;28;20790;-78
2021/06/15 07:18:08;;;;;;;7.23;6.63;;;21.90;35.70;;;;;;5086793;28;20232;-78
2021/06/15 07:20:37;;;;;;;7.20;6.50;;;21.90;35.70;;;;;;5087246;28;20405;-79
2021/06/15 07:23:05;;;;;;;8.83;7.27;;;21.90;35.60;;;;;;5093234;28;20484;-78
2021/06/15 07:25:32;;;;;;;7.67;6.97;;;21.90;35.40;;;;;;5093166;28;20424;-78
2021/06/15 07:28:09;;;;;;;7.40;6.40;;;21.90;35.30;;;;;;5093473;28;20789;-78
2021/06/15 07:30:40;;;;;;;6.40;5.90;;;21.90;35.30;;;;;;5093591;28;20408;-78
2021/06/15 07:33:09;;;;;;;7.40;6.67;;;21.90;35.40;;;;;;5093508;28;20574;-78
2021/06/15 07:35:40;;;;;;;7.50;7.00;;;21.90;35.20;;;;;;5093093;28;20415;-77
2021/06/15 07:38:15;;;;;;;6.80;6.20;;;21.90;35.20;;;;;;5093068;28;20501;-77
2021/06/15 07:41:02;;;;;;;7.67;6.27;;;22.00;35.40;;;;;;5093184;28;21119;-77
2021/06/15 07:43:28;;;;;;;7.73;7.00;;;22.00;35.40;;;;;;5092004;28;20439;-77
2021/06/15 07:45:57;;;;;;;7.10;6.40;;;22.00;35.50;;;;;;5092812;28;20475;-77
2021/06/15 07:48:31;;;;;;;7.13;6.50;;;21.90;35.50;;;;;;5092937;28;20397;-78
2021/06/15 07:50:59;;;;;;;13.13;6.80;;;22.00;35.30;;;;;;5092957;28;20508;-78
2021/06/15 07:53:27;;;;;;;7.50;6.80;;;22.00;35.20;;;;;;5092661;28;20837;-77
2021/06/15 07:56:00;;;;;;;7.00;6.40;;;22.00;35.20;;;;;;5092615;28;20413;-77
2021/06/15 07:58:28;;;;;;;6.23;5.83;;;22.00;35.30;;;;;;5092799;28;20393;-78
2021/06/15 08:00:57;;;;;;;6.10;5.60;;;22.00;35.30;;;;;;5092859;28;20860;-77
2021/06/15 08:03:26;;;;;;;7.40;6.70;;;22.00;35.20;;;;;;5090502;28;20438;-77
2021/06/15 08:05:57;;;;;;;6.77;5.90;;;22.00;35.10;;;;;;5092542;28;20979;-77
2021/06/15 08:08:24;;;;;;;8.90;6.70;;;22.00;35.10;;;;;;5092647;28;20405;-76
2021/06/15 08:10:52;;;;;;;6.90;6.30;;;22.00;35.20;;;;;;5092959;28;20902;-77
2021/06/15 08:13:20;;;;;;;7.67;7.17;;;22.00;35.20;;;;;;5092172;28;20464;-78
2021/06/15 08:15:55;;;;;;;6.67;6.13;;;22.00;35.10;;;;;;5091453;28;20416;-76
2021/06/15 08:18:22;;;;;;;7.00;6.50;;;22.00;35.20;;;;;;5092688;28;20404;-76
2021/06/15 08:21:17;;;;;;;7.33;6.70;;;22.00;35.00;;;;;;5092820;28;20408;-75
2021/06/15 08:23:44;;;;;;;9.27;6.70;;;22.10;35.70;;;;;;5092383;28;20436;-75
2021/06/15 08:26:15;;;;;;;7.60;6.90;;;22.10;35.10;;;;;;5092121;28;20416;-76
2021/06/15 08:28:41;;;;;;;6.90;6.20;;;22.00;35.10;;;;;;5093808;28;20397;-77
2021/06/15 08:31:20;;;;;;;7.60;6.80;;;22.10;35.10;;;;;;5094009;28;20401;-77
2021/06/15 08:33:49;;;;;;;8.50;7.50;;;22.10;35.00;;;;;;5091459;28;20468;-77
2021/06/15 08:36:20;;;;;;;6.23;5.73;;;22.10;35.10;;;;;;5092479;28;20411;-77
2021/06/15 08:38:53;;;;;;;7.47;6.77;;;22.10;35.10;;;;;;5092295;28;20439;-77
2021/06/15 08:41:20;;;;;;;7.00;6.10;;;22.10;35.10;;;;;;5092054;28;20877;-78
2021/06/15 08:43:49;;;;;;;7.43;6.70;;;22.10;35.00;;;;;;5092109;28;20420;-78
2021/06/15 08:46:18;;;;;;;8.43;7.40;;;22.10;34.80;;;;;;5090577;28;20424;-78
2021/06/15 08:48:46;;;;;;;8.17;7.57;;;22.10;34.60;;;;;;5092104;28;20407;-77
2021/06/15 08:51:17;;;;;;;7.13;6.53;;;22.10;34.60;;;;;;5092174;28;20403;-77
2021/06/15 08:53:43;;;;;;;7.43;6.83;;;22.10;34.70;;;;;;5090730;28;20476;-77
2021/06/15 08:56:24;;;;;;;6.33;5.83;;;22.10;34.70;;;;;;5092047;28;20401;-77
2021/06/15 08:59:19;;;;;;;7.50;6.90;;;22.10;34.70;;;;;;5092239;28;20450;-76
2021/06/15 09:01:59;;;;;;;7.47;6.10;;;22.10;34.50;;;;;;5070702;28;20417;-77
2021/06/15 09:04:25;;;;;;;7.50;7.00;;;22.10;34.70;;;;;;5071691;28;20423;-77
2021/06/15 09:07:05;;;;;;;6.67;6.17;;;22.10;34.60;;;;;;5071800;28;20489;-77
2021/06/15 09:09:53;;;;;;;7.07;6.43;;;22.20;34.50;;;;;;5070083;28;20422;-77
2021/06/15 09:12:22;;;;;;;6.70;6.20;;;22.10;34.40;;;;;;5071593;28;20448;-78
2021/06/15 09:14:55;;;;;;;7.20;6.50;;;22.20;34.40;;;;;;5072151;28;20429;-77
2021/06/15 09:17:41;;;;;;;7.00;6.30;;;22.20;34.40;;;;;;5075603;28;20406;-77
2021/06/15 09:20:29;;;;;;;7.90;7.20;;;22.20;34.30;;;;;;5074475;28;20464;-77
2021/06/15 09:23:07;;;;;;;6.70;6.20;;;22.20;34.10;;;;;;5075416;28;20476;-77
2021/06/15 09:25:53;;;;;;;6.50;6.10;;;22.20;33.70;;;;;;5082987;28;20776;-77
2021/06/15 09:28:22;;;;;;;6.60;6.10;;;22.20;34.10;;;;;;5095774;28;20513;-78
2021/06/15 09:31:09;;;;;;;7.07;6.27;;;22.20;33.60;;;;;;5095622;28;20405;-77
2021/06/15 09:33:47;;;;;;;6.60;6.20;;;22.20;33.20;;;;;;5095384;28;20464;-77
2021/06/15 09:36:15;;;;;;;6.03;5.53;;;22.20;33.40;;;;;;5095452;28;20405;-77
2021/06/15 09:38:58;;;;;;;6.70;6.10;;;22.20;33.60;;;;;;5093962;28;20416;-78
2021/06/15 09:41:53;;;;;;;6.53;5.97;;;22.20;33.60;;;;;;5095540;28;20786;-78
2021/06/15 09:44:22;;;;;;;6.60;6.00;;;22.30;32.90;;;;;;5094151;28;20489;-77
2021/06/15 09:46:56;;;;;;;7.80;6.47;;;22.20;32.90;;;;;;5095456;28;20417;-77
2021/06/15 09:49:40;;;;;;;6.70;6.20;;;22.30;32.40;;;;;;5095356;28;20411;-78
2021/06/15 09:52:17;;;;;;;6.27;5.90;;;22.30;32.60;;;;;;5095215;28;20921;-77
2021/06/15 09:55:11;;;;;;;6.00;5.60;;;22.30;31.90;;;;;;5095077;28;20424;-77
2021/06/15 09:57:45;;;;;;;6.90;6.50;;;22.30;31.90;;;;;;5095347;28;20419;-77
2021/06/15 10:00:28;;;;;;;5.80;5.40;;;22.30;31.90;;;;;;5095443;28;20397;-77
2021/06/15 10:02:58;;;;;;;6.33;5.93;;;22.30;31.90;;;;;;5095080;28;20459;-77
2021/06/15 10:05:35;;;;;;;5.83;5.43;;;22.30;31.90;;;;;;5093666;28;20470;-76
2021/06/15 10:08:13;;;;;;;6.53;6.13;;;22.30;32.00;;;;;;5095210;28;20922;-77
2021/06/15 10:10:46;;;;;;;5.90;5.60;;;22.30;31.90;;;;;;5094788;28;20491;-77
2021/06/15 10:13:15;;;;;;;6.03;5.50;;;22.30;32.40;;;;;;5080720;28;20541;-77
2021/06/15 10:15:43;;;;;;;5.53;5.03;;;22.30;31.90;;;;;;5096456;28;20405;-78
2021/06/15 10:18:23;;;;;;;5.90;5.50;;;22.30;31.90;;;;;;5094115;28;20459;-77
2021/06/15 10:20:53;;;;;;;5.90;5.60;;;22.40;32.00;;;;;;5094739;28;20408;-77
2021/06/15 10:23:24;;;;;;;5.70;5.40;;;22.40;32.00;;;;;;5094469;28;20435;-78
2021/06/15 10:26:07;;;;;;;6.00;5.60;;;22.40;32.00;;;;;;5093358;28;20783;-77
2021/06/15 10:28:36;;;;;;;5.83;5.33;;;22.40;32.00;;;;;;5093280;28;20448;-78
2021/06/15 10:31:11;;;;;;;5.80;5.30;;;22.40;31.80;;;;;;5094718;28;20409;-77
2021/06/15 10:33:56;;;;;;;6.10;5.80;;;22.40;31.60;;;;;;5094192;28;20478;-77
2021/06/15 10:36:50;;;;;;;5.70;5.40;;;22.40;31.50;;;;;;5094127;28;20409;-76
2021/06/15 10:39:44;;;;;;;5.90;5.60;;;22.40;32.00;;;;;;5094412;28;20436;-76
2021/06/15 10:42:14;;;;;;;5.27;4.97;;;22.40;30.70;;;;;;5094261;28;20428;-76
2021/06/15 10:45:12;;;;;;;5.70;5.40;;;22.40;31.00;;;;;;5094095;28;20425;-76
2021/06/15 10:48:02;;;;;;;6.10;5.60;;;22.50;30.00;;;;;;5073756;28;20441;-77
2021/06/15 10:50:44;;;;;;;5.63;5.23;;;22.40;30.30;;;;;;5088857;28;20437;-77
2021/06/15 10:56:09;;;;;;;5.33;5.03;;;22.50;30.00;;;;;;5094280;28;20409;-77
2021/06/15 10:58:35;;;;;;;6.90;4.93;;;22.50;30.20;;;;;;5093921;28;20401;-77
2021/06/15 11:01:29;;;;;;;6.00;5.50;;;22.50;30.40;;;;;;5094085;28;20427;-77
2021/06/15 11:04:14;;;;;;;5.47;5.17;;;22.50;30.50;;;;;;5097199;28;20194;-78
2021/06/15 11:06:45;;;;;;;5.80;5.40;;;22.50;30.40;;;;;;5098164;28;20404;-79
2021/06/15 11:09:15;;;;;;;5.97;5.53;;;22.50;30.00;;;;;;5096775;28;20405;-79
2021/06/15 11:11:43;;;;;;;6.17;5.67;;;22.50;29.40;;;;;;5091012;28;20460;-79
2021/06/15 11:14:19;;;;;;;5.03;4.63;;;22.60;29.30;;;;;;5097059;28;20853;-78
2021/06/15 11:16:46;;;;;;;6.03;5.57;;;22.60;28.70;;;;;;5091183;28;20891;-79
2021/06/15 11:19:11;;;;;;;5.27;4.97;;;22.60;29.00;;;;;;5089749;28;20417;-78
2021/06/15 11:21:52;;;;;;;6.27;5.87;;;22.60;29.60;;;;;;5097909;28;20554;-80
2021/06/15 11:24:45;;;;;;;5.60;5.30;;;22.50;29.90;;;;;;5096036;28;20950;-82
2021/06/15 11:27:16;;;;;;;5.73;5.20;;;22.50;29.90;;;;;;5079525;28;20424;-78
2021/06/15 11:29:49;;;;;;;5.90;5.50;;;22.50;29.30;;;;;;5094135;28;20948;-77
2021/06/15 11:32:15;;;;;;;6.03;5.73;;;22.60;29.10;;;;;;5095693;28;20854;-77
2021/06/15 11:34:42;;;;;;;6.20;5.63;;;22.60;29.40;;;;;;5094871;28;20435;-75
2021/06/15 11:37:32;;;;;;;5.73;5.33;;;22.50;29.70;;;;;;5094239;28;20428;-76
2021/06/15 11:40:19;;;;;;;8.00;5.53;;;22.50;29.90;;;;;;5093054;28;20419;-77
2021/06/15 11:42:50;;;;;;;4.80;4.60;;;22.50;30.10;;;;;;5092814;28;20435;-76
2021/06/15 11:45:19;;;;;;;5.97;5.57;;;22.40;30.00;;;;;;5092964;28;20431;-75
2021/06/15 11:47:54;;;;;;;6.00;5.50;;;22.50;30.20;;;;;;5093186;28;20754;-76
2021/06/15 11:50:30;;;;;;;6.43;6.03;;;22.50;30.00;;;;;;5092114;28;20412;-76
2021/06/15 11:53:10;;;;;;;6.13;5.70;;;22.50;30.00;;;;;;5092504;28;20452;-77
2021/06/15 11:55:43;;;;;;;5.57;5.27;;;22.50;30.20;;;;;;5086185;28;20406;-77
2021/06/15 11:58:13;;;;;;;5.97;5.63;;;22.50;29.90;;;;;;5090255;28;20417;-79
2021/06/15 12:00:46;;;;;;;5.60;5.20;;;22.50;30.00;;;;;;5096174;28;20812;-79
2021/06/15 12:03:21;;;;;;;5.80;5.40;;;22.50;30.00;;;;;;5093021;28;21013;-79
2021/06/15 12:05:56;;;;;;;6.13;5.70;;;22.50;30.30;;;;;;5092766;28;20412;-79
2021/06/15 12:08:22;;;;;;;5.57;5.17;;;22.50;30.10;;;;;;5096444;28;20401;-78
2021/06/15 12:10:50;;;;;;;6.30;5.90;;;22.50;30.00;;;;;;5095201;28;20448;-79
2021/06/15 12:13:22;;;;;;;5.10;4.80;;;22.50;29.60;;;;;;5096260;28;20467;-79
2021/06/15 12:15:53;;;;;;;5.40;5.00;;;22.50;29.40;;;;;;5093091;28;20424;-74
2021/06/15 12:18:22;;;;;;;5.37;4.97;;;22.60;29.50;;;;;;5092625;28;20504;-79
2021/06/15 12:20:54;;;;;;;5.33;5.00;;;22.50;29.60;;;;;;5089166;28;20424;-77
2021/06/15 12:23:42;;;;;;;5.33;4.93;;;22.50;29.70;;;;;;5092146;28;21446;-77
2021/06/15 12:26:22;;;;;;;5.60;5.20;;;22.50;29.80;;;;;;5091447;28;20420;-78
2021/06/15 12:29:05;;;;;;;6.80;6.10;;;22.60;29.60;;;;;;5090688;28;20770;-77
2021/06/15 12:31:43;;;;;;;5.33;4.93;;;22.50;29.60;;;;;;5090733;28;20405;-79
2021/06/15 12:34:18;;;;;;;5.37;4.97;;;22.60;29.60;;;;;;5090887;28;20439;-75
2021/06/15 12:36:49;;;;;;;6.20;5.60;;;22.60;29.70;;;;;;5091677;28;20404;-76
2021/06/15 12:39:34;;;;;;;5.97;5.67;;;22.60;29.50;;;;;;5091872;28;20409;-75
2021/06/15 12:42:05;;;;;;;6.00;5.60;;;22.60;29.40;;;;;;5090771;28;20801;-77
2021/06/15 12:44:39;;;;;;;5.20;4.90;;;22.60;29.20;;;;;;5091237;28;21118;-77
2021/06/15 12:47:09;;;;;;;5.70;5.27;;;22.60;29.30;;;;;;5091161;28;20452;-76
2021/06/15 12:49:35;;;;;;;5.90;5.60;;;22.60;28.70;;;;;;5091089;28;20408;-76
2021/06/15 12:52:10;;;;;;;5.40;5.10;;;22.60;29.00;;;;;;5092020;28;20876;-76
2021/06/15 12:54:44;;;;;;;5.20;4.80;;;22.60;29.10;;;;;;5092152;28;20194;-75
2021/06/15 12:57:16;;;;;;;5.67;5.37;;;22.60;29.00;;;;;;5093362;28;20404;-76
2021/06/15 12:59:44;;;;;;;5.27;4.97;;;22.60;29.10;;;;;;5093110;28;20405;-76
2021/06/15 13:02:11;;;;;;;4.90;4.70;;;22.60;28.90;;;;;;5093153;28;20938;-77
2021/06/15 13:04:45;;;;;;;5.10;4.80;;;22.60;28.30;;;;;;5091746;28;20921;-76
2021/06/15 13:07:14;;;;;;;4.40;4.20;;;22.70;28.10;;;;;;5093136;28;20404;-76
2021/06/15 13:09:39;;;;;;;4.67;4.37;;;22.70;27.90;;;;;;5093858;28;20412;-77
2021/06/15 13:12:10;;;;;;;5.30;5.00;;;22.70;28.30;;;;;;5093692;28;20468;-78
2021/06/15 13:14:38;;;;;;;5.33;4.60;;;22.70;28.60;;;;;;5092392;28;20197;-77
2021/06/15 13:17:12;;;;;;;4.80;4.60;;;22.60;28.40;;;;;;5093486;28;20411;-78
2021/06/15 13:19:42;;;;;;;4.63;4.40;;;22.70;27.60;;;;;;5094740;28;20528;-79